createdAt,value
2018-07-25T00:01:06.615Z,0
2018-07-25T00:02:22.481Z,0
2018-07-25T00:03:38.360Z,0
2018-07-25T00:04:54.348Z,0
2018-07-25T00:06:10.287Z,0
2018-07-25T00:07:26.174Z,0
2018-07-25T00:08:42.097Z,0
2018-07-25T00:09:57.980Z,0
2018-07-25T00:11:13.895Z,0
2018-07-25T00:12:29.813Z,0
2018-07-25T00:13:45.721Z,0
2018-07-25T00:15:01.644Z,0
2018-07-25T00:16:17.547Z,0
2018-07-25T00:17:33.473Z,0
2018-07-25T00:18:49.374Z,1
2018-07-25T00:20:05.272Z,0
2018-07-25T00:21:21.165Z,0
2018-07-25T00:22:37.060Z,0
2018-07-25T00:23:52.966Z,0
2018-07-25T00:25:08.904Z,0
2018-07-25T00:26:24.776Z,0
2018-07-25T00:27:40.699Z,0
2018-07-25T00:28:56.553Z,0
2018-07-25T00:30:12.430Z,0
2018-07-25T00:31:28.305Z,0
2018-07-25T00:32:44.232Z,0
2018-07-25T00:34:00.137Z,0
2018-07-25T00:35:15.992Z,0
2018-07-25T00:36:31.870Z,0
2018-07-25T00:37:47.756Z,0
2018-07-25T00:39:03.729Z,0
2018-07-25T00:40:19.661Z,0
2018-07-25T00:41:35.537Z,0
2018-07-25T00:42:51.413Z,0
2018-07-25T00:44:07.371Z,0
2018-07-25T00:45:23.270Z,0
2018-07-25T00:46:39.166Z,0
2018-07-25T00:47:55.043Z,0
2018-07-25T00:49:10.990Z,0
2018-07-25T00:50:26.857Z,0
2018-07-25T00:51:42.743Z,0
2018-07-25T00:52:58.630Z,0
2018-07-25T00:54:14.526Z,0
2018-07-25T00:55:30.512Z,0
2018-07-25T00:56:46.278Z,0
2018-07-25T00:58:02.294Z,0
2018-07-25T00:59:18.234Z,0
2018-07-25T01:00:34.130Z,0
2018-07-25T01:01:49.997Z,0
2018-07-25T01:03:05.902Z,0
2018-07-25T01:04:21.784Z,0
2018-07-25T01:05:37.683Z,0
2018-07-25T01:06:53.611Z,0
2018-07-25T01:08:09.481Z,0
2018-07-25T01:09:25.382Z,0
2018-07-25T01:10:41.305Z,0
2018-07-25T01:11:57.177Z,0
2018-07-25T01:13:13.041Z,0
2018-07-25T01:14:28.965Z,0
2018-07-25T01:15:44.836Z,0
2018-07-25T01:17:00.705Z,0
2018-07-25T01:18:16.610Z,0
2018-07-25T01:19:32.585Z,0
2018-07-25T01:20:48.505Z,0
2018-07-25T01:22:04.406Z,0
2018-07-25T01:23:20.289Z,0
2018-07-25T01:24:36.151Z,0
2018-07-25T01:25:52.033Z,0
2018-07-25T01:27:07.927Z,0
2018-07-25T01:28:23.819Z,0
2018-07-25T01:29:39.700Z,0
2018-07-25T01:30:55.627Z,0
2018-07-25T01:32:11.490Z,0
2018-07-25T01:33:27.371Z,0
2018-07-25T01:34:43.252Z,0
2018-07-25T01:35:59.172Z,0
2018-07-25T01:37:15.067Z,0
2018-07-25T01:38:30.979Z,0
2018-07-25T01:39:46.839Z,0
2018-07-25T01:41:02.752Z,0
2018-07-25T01:42:18.664Z,0
2018-07-25T01:43:34.579Z,0
2018-07-25T01:44:50.485Z,0
2018-07-25T01:46:06.402Z,0
2018-07-25T01:47:22.313Z,0
2018-07-25T01:48:38.211Z,0
2018-07-25T01:49:54.150Z,0
2018-07-25T01:51:10.036Z,0
2018-07-25T01:52:25.920Z,0
2018-07-25T01:53:41.849Z,0
2018-07-25T01:54:57.743Z,0
2018-07-25T01:56:13.669Z,0
2018-07-25T01:57:29.560Z,0
2018-07-25T01:58:45.438Z,0
2018-07-25T02:00:01.359Z,0
2018-07-25T02:01:17.290Z,0
2018-07-25T02:02:33.136Z,0
2018-07-25T02:03:49.053Z,0
2018-07-25T02:05:04.923Z,0
2018-07-25T02:06:21.841Z,0
2018-07-25T02:07:37.752Z,0
2018-07-25T02:08:53.647Z,0
2018-07-25T02:10:09.528Z,0
2018-07-25T02:11:25.419Z,0
2018-07-25T02:12:41.304Z,0
2018-07-25T02:13:57.176Z,0
2018-07-25T02:15:13.048Z,0
2018-07-25T02:16:28.920Z,0
2018-07-25T02:17:44.801Z,0
2018-07-25T02:19:00.680Z,0
2018-07-25T02:20:16.581Z,0
2018-07-25T02:21:32.530Z,0
2018-07-25T02:22:48.591Z,0
2018-07-25T02:24:04.471Z,0
2018-07-25T02:25:20.355Z,0
2018-07-25T02:26:36.259Z,0
2018-07-25T02:27:52.151Z,0
2018-07-25T02:29:08.075Z,0
2018-07-25T02:30:23.962Z,0
2018-07-25T02:31:39.844Z,0
2018-07-25T02:32:55.768Z,0
2018-07-25T02:34:11.726Z,0
2018-07-25T02:35:27.594Z,0
2018-07-25T02:36:43.516Z,0
2018-07-25T02:37:59.455Z,0
2018-07-25T02:39:15.356Z,0
2018-07-25T02:40:31.296Z,0
2018-07-25T02:41:47.176Z,0
2018-07-25T02:43:03.080Z,0
2018-07-25T02:44:19.004Z,0
2018-07-25T02:45:34.863Z,0
2018-07-25T02:46:50.768Z,0
2018-07-25T02:48:06.635Z,0
2018-07-25T02:49:22.530Z,0
2018-07-25T02:50:38.439Z,0
2018-07-25T02:51:54.324Z,0
2018-07-25T02:53:10.224Z,1
2018-07-25T02:54:26.165Z,0
2018-07-25T02:55:42.077Z,0
2018-07-25T02:56:58.049Z,0
2018-07-25T02:58:13.853Z,1
2018-07-25T02:59:29.762Z,0
2018-07-25T03:00:45.664Z,1
2018-07-25T03:02:01.550Z,1
2018-07-25T03:03:17.459Z,1
2018-07-25T03:04:33.357Z,1
2018-07-25T03:05:49.378Z,1
2018-07-25T03:07:05.267Z,1
2018-07-25T03:08:21.212Z,0
2018-07-25T03:09:37.096Z,0
2018-07-25T03:10:53.018Z,1
2018-07-25T03:12:08.931Z,1
2018-07-25T03:13:24.834Z,1
2018-07-25T03:14:40.712Z,1
2018-07-25T03:15:56.614Z,1
2018-07-25T03:17:12.526Z,1
2018-07-25T03:18:28.491Z,2
2018-07-25T03:19:44.383Z,2
2018-07-25T03:21:00.233Z,2
2018-07-25T03:22:16.135Z,3
2018-07-25T03:23:32.042Z,3
2018-07-25T03:24:47.930Z,4
2018-07-25T03:26:03.836Z,5
2018-07-25T03:27:19.717Z,6
2018-07-25T03:28:35.593Z,8
2018-07-25T03:29:51.471Z,9
2018-07-25T03:31:07.374Z,11
2018-07-25T03:32:23.272Z,14
2018-07-25T03:33:39.172Z,16
2018-07-25T03:34:56.025Z,19
2018-07-25T03:36:11.889Z,24
2018-07-25T03:37:27.882Z,29
2018-07-25T03:38:43.700Z,35
2018-07-25T03:39:59.619Z,42
2018-07-25T03:41:15.532Z,50
2018-07-25T03:42:31.432Z,58
2018-07-25T03:43:47.334Z,68
2018-07-25T03:45:03.225Z,79
2018-07-25T03:46:19.107Z,91
2018-07-25T03:47:35.013Z,105
2018-07-25T03:48:50.873Z,119
2018-07-25T03:50:06.738Z,135
2018-07-25T03:51:22.639Z,152
2018-07-25T03:52:38.537Z,170
2018-07-25T03:53:54.450Z,191
2018-07-25T03:55:10.342Z,211
2018-07-25T03:56:26.225Z,233
2018-07-25T03:57:42.137Z,256
2018-07-25T03:58:58.041Z,281
2018-07-25T04:00:13.946Z,308
2018-07-25T04:01:29.855Z,334
2018-07-25T04:02:45.775Z,360
2018-07-25T04:04:01.651Z,390
2018-07-25T04:05:17.614Z,421
2018-07-25T04:06:33.583Z,450
2018-07-25T04:07:49.501Z,481
2018-07-25T04:09:05.409Z,517
2018-07-25T04:10:21.294Z,545
2018-07-25T04:11:37.185Z,577
2018-07-25T04:12:53.090Z,610
2018-07-25T04:14:08.982Z,645
2018-07-25T04:15:24.945Z,678
2018-07-25T04:16:40.867Z,711
2018-07-25T04:17:56.751Z,745
2018-07-25T04:19:12.648Z,779
2018-07-25T04:20:28.542Z,812
2018-07-25T04:21:45.496Z,845
2018-07-25T04:23:01.402Z,880
2018-07-25T04:24:17.302Z,912
2018-07-25T04:25:33.202Z,944
2018-07-25T04:26:49.113Z,975
2018-07-25T04:28:05.030Z,1007
2018-07-25T04:29:20.914Z,1038
2018-07-25T04:30:36.799Z,1068
2018-07-25T04:31:52.752Z,1098
2018-07-25T04:33:08.646Z,1127
2018-07-25T04:34:24.550Z,1156
2018-07-25T04:35:40.441Z,1183
2018-07-25T04:36:56.423Z,1212
2018-07-25T04:38:12.364Z,1238
2018-07-25T04:39:28.289Z,1266
2018-07-25T04:40:44.239Z,1293
2018-07-25T04:42:00.174Z,1318
2018-07-25T04:43:16.139Z,1342
2018-07-25T04:44:32.078Z,1365
2018-07-25T04:45:48.002Z,1389
2018-07-25T04:47:03.970Z,1414
2018-07-25T04:48:19.926Z,1438
2018-07-25T04:49:35.810Z,1462
2018-07-25T04:50:51.709Z,1485
2018-07-25T04:52:07.588Z,1509
2018-07-25T04:53:23.506Z,1529
2018-07-25T04:54:39.396Z,1544
2018-07-25T04:55:55.263Z,1566
2018-07-25T04:57:11.215Z,1585
2018-07-25T04:58:27.097Z,1603
2018-07-25T04:59:42.994Z,1623
2018-07-25T05:02:39.412Z,1644
2018-07-25T05:03:55.367Z,1685
2018-07-25T05:05:11.313Z,1703
2018-07-25T05:06:27.267Z,1721
2018-07-25T05:07:43.183Z,1742
2018-07-25T05:08:59.119Z,1759
2018-07-25T05:10:15.026Z,1774
2018-07-25T05:11:30.944Z,1791
2018-07-25T05:12:46.861Z,1809
2018-07-25T05:14:02.754Z,1825
2018-07-25T05:15:18.619Z,1841
2018-07-25T05:16:34.517Z,1859
2018-07-25T05:17:50.509Z,1874
2018-07-25T05:19:06.421Z,1890
2018-07-25T05:20:22.339Z,1905
2018-07-25T05:21:38.279Z,1919
2018-07-25T05:22:54.253Z,1936
2018-07-25T05:24:12.979Z,1944
2018-07-25T05:25:28.917Z,1962
2018-07-25T05:26:44.812Z,1980
2018-07-25T05:28:00.743Z,1993
2018-07-25T05:29:16.646Z,2008
2018-07-25T05:30:32.506Z,2022
2018-07-25T05:31:48.422Z,2036
2018-07-25T05:33:04.329Z,2050
2018-07-25T05:34:20.208Z,2065
2018-07-25T05:35:36.096Z,2080
2018-07-25T05:36:52.016Z,2097
2018-07-25T05:38:07.948Z,2115
2018-07-25T05:39:23.836Z,2126
2018-07-25T05:40:39.710Z,2150
2018-07-25T05:41:55.613Z,2154
2018-07-25T05:43:11.531Z,2180
2018-07-25T05:44:27.486Z,2185
2018-07-25T05:45:43.452Z,2200
2018-07-25T05:46:59.324Z,2216
2018-07-25T05:48:15.224Z,2226
2018-07-25T05:49:31.179Z,2243
2018-07-25T05:50:47.002Z,2261
2018-07-25T05:52:02.887Z,2285
2018-07-25T05:53:18.790Z,2288
2018-07-25T05:54:34.658Z,2301
2018-07-25T05:55:50.545Z,2314
2018-07-25T05:57:06.418Z,2329
2018-07-25T05:58:22.356Z,2358
2018-07-25T05:59:38.238Z,2356
2018-07-25T06:00:54.131Z,2382
2018-07-25T06:02:10.048Z,2389
2018-07-25T06:03:26.036Z,2402
2018-07-25T06:04:41.936Z,2422
2018-07-25T06:05:57.842Z,2432
2018-07-25T06:07:13.695Z,2456
2018-07-25T06:08:29.648Z,2456
2018-07-25T06:09:45.503Z,2469
2018-07-25T06:11:01.409Z,2484
2018-07-25T06:12:17.307Z,2565
2018-07-25T06:13:33.181Z,2515
2018-07-25T06:14:49.061Z,2553
2018-07-25T06:16:04.942Z,2540
2018-07-25T06:17:20.821Z,2548
2018-07-25T06:18:36.796Z,2558
2018-07-25T06:19:52.652Z,2576
2018-07-25T06:21:08.513Z,2594
2018-07-25T06:22:24.441Z,2731
2018-07-25T06:23:40.334Z,2620
2018-07-25T06:24:56.238Z,2637
2018-07-25T06:26:12.156Z,2650
2018-07-25T06:27:28.091Z,2667
2018-07-25T06:28:43.986Z,2683
2018-07-25T06:29:59.863Z,2751
2018-07-25T06:31:15.843Z,2712
2018-07-25T06:32:31.698Z,2726
2018-07-25T06:33:47.603Z,2763
2018-07-25T06:35:03.500Z,2762
2018-07-25T06:36:19.428Z,2780
2018-07-25T06:37:35.468Z,2796
2018-07-25T06:38:51.365Z,2819
2018-07-25T06:40:07.303Z,2834
2018-07-25T06:41:23.207Z,2854
2018-07-25T06:42:39.147Z,2868
2018-07-25T06:43:55.070Z,2885
2018-07-25T06:45:10.960Z,2910
2018-07-25T06:46:26.888Z,2921
2018-07-25T06:47:42.820Z,2939
2018-07-25T06:48:58.725Z,2964
2018-07-25T06:50:14.605Z,2983
2018-07-25T06:51:30.551Z,2999
2018-07-25T06:52:46.462Z,3008
2018-07-25T06:54:02.357Z,3019
2018-07-25T06:55:18.236Z,3046
2018-07-25T06:56:34.185Z,3064
2018-07-25T06:57:50.074Z,3077
2018-07-25T06:59:05.965Z,3091
2018-07-25T07:00:21.883Z,3110
2018-07-25T07:01:37.776Z,3130
2018-07-25T07:02:53.693Z,3155
2018-07-25T07:04:09.644Z,3174
2018-07-25T07:05:25.533Z,3189
2018-07-25T07:06:41.478Z,3233
2018-07-25T07:07:57.352Z,3280
2018-07-25T07:09:13.250Z,3300
2018-07-25T07:10:29.169Z,3340
2018-07-25T07:11:45.131Z,3394
2018-07-25T07:13:01.037Z,3430
2018-07-25T07:14:16.930Z,3528
2018-07-25T07:15:32.805Z,3564
2018-07-25T07:16:48.754Z,3614
2018-07-25T07:18:04.685Z,3643
2018-07-25T07:19:20.584Z,3668
2018-07-25T07:20:36.464Z,3697
2018-07-25T07:21:52.464Z,3709
2018-07-25T07:23:08.385Z,3750
2018-07-25T07:24:24.335Z,3732
2018-07-25T07:25:40.268Z,3750
2018-07-25T07:26:56.127Z,3791
2018-07-25T07:28:12.040Z,3790
2018-07-25T07:29:27.968Z,3805
2018-07-25T07:30:43.889Z,3847
2018-07-25T07:31:59.917Z,3863
2018-07-25T07:33:15.932Z,3859
2018-07-25T07:34:31.829Z,3892
2018-07-25T07:35:47.720Z,3903
2018-07-25T07:37:03.634Z,3932
2018-07-25T07:38:19.492Z,3985
2018-07-25T07:39:35.421Z,3974
2018-07-25T07:40:51.304Z,3991
2018-07-25T07:42:07.237Z,4047
2018-07-25T07:43:23.134Z,4046
2018-07-25T07:44:39.062Z,4081
2018-07-25T07:45:54.979Z,4075
2018-07-25T07:47:10.854Z,4118
2018-07-25T07:48:26.747Z,4151
2018-07-25T07:49:42.698Z,4168
2018-07-25T07:50:58.637Z,4214
2018-07-25T07:52:14.563Z,4224
2018-07-25T07:53:30.477Z,4240
2018-07-25T07:54:46.469Z,4255
2018-07-25T07:56:02.348Z,4273
2018-07-25T07:57:18.268Z,4293
2018-07-25T07:58:34.166Z,4326
2018-07-25T07:59:50.234Z,4340
2018-07-25T08:01:06.158Z,4385
2018-07-25T08:02:22.106Z,4380
2018-07-25T08:03:38.074Z,4393
2018-07-25T08:04:53.994Z,4428
2018-07-25T08:06:09.900Z,4414
2018-07-25T08:07:25.817Z,4436
2018-07-25T08:08:41.738Z,4471
2018-07-25T08:09:57.665Z,4498
2018-07-25T08:11:13.620Z,4515
2018-07-25T08:12:29.582Z,4495
2018-07-25T08:13:45.516Z,4507
2018-07-25T08:15:01.643Z,4555
2018-07-25T08:16:17.644Z,4540
2018-07-25T08:17:33.786Z,4588
2018-07-25T08:18:49.620Z,4580
2018-07-25T08:20:05.549Z,4586
2018-07-25T08:21:21.431Z,4638
2018-07-25T08:22:37.364Z,4656
2018-07-25T08:23:53.259Z,4635
2018-07-25T08:25:09.259Z,4682
2018-07-25T08:26:25.202Z,4720
2018-07-25T08:27:41.094Z,4756
2018-07-25T08:28:57.043Z,4791
2018-07-25T08:30:12.991Z,4797
2018-07-25T08:31:28.886Z,4779
2018-07-25T08:32:44.774Z,4839
2018-07-25T08:34:00.698Z,4842
2018-07-25T08:35:17.623Z,4859
2018-07-25T08:36:33.568Z,4914
2018-07-25T08:37:49.534Z,4911
2018-07-25T08:39:05.426Z,4931
2018-07-25T08:40:21.352Z,4942
2018-07-25T08:41:37.271Z,4984
2018-07-25T08:42:53.209Z,4959
2018-07-25T08:44:09.145Z,5001
2018-07-25T08:45:25.145Z,4980
2018-07-25T08:46:41.104Z,5021
2018-07-25T08:47:57.932Z,5006
2018-07-25T08:49:13.827Z,5017
2018-07-25T08:50:29.816Z,5054
2018-07-25T08:51:45.709Z,5073
2018-07-25T08:53:01.633Z,5094
2018-07-25T08:54:17.579Z,5108
2018-07-25T08:55:33.502Z,5134
2018-07-25T08:56:49.388Z,5169
2018-07-25T08:58:05.315Z,5164
2018-07-25T08:59:21.257Z,5224
2018-07-25T09:00:37.228Z,5235
2018-07-25T09:01:53.094Z,5251
2018-07-25T09:03:08.942Z,5267
2018-07-25T09:04:24.847Z,5274
2018-07-25T09:05:40.847Z,5260
2018-07-25T09:06:56.844Z,5228
2018-07-25T09:08:12.755Z,5252
2018-07-25T09:09:28.671Z,5243
2018-07-25T09:10:44.716Z,5227
2018-07-25T09:12:00.604Z,5221
2018-07-25T09:13:16.571Z,5187
2018-07-25T09:14:32.596Z,5246
2018-07-25T09:15:48.653Z,5214
2018-07-25T09:17:04.534Z,5203
2018-07-25T09:18:20.436Z,5218
2018-07-25T09:19:36.427Z,5224
2018-07-25T09:20:52.338Z,5182
2018-07-25T09:22:08.231Z,5178
2018-07-25T09:23:24.147Z,5162
2018-07-25T09:24:40.045Z,5190
2018-07-25T09:25:55.982Z,5182
2018-07-25T09:27:11.919Z,5171
2018-07-25T09:28:27.817Z,5169
2018-07-25T09:29:43.769Z,5149
2018-07-25T09:30:59.728Z,5159
2018-07-25T09:32:15.640Z,5172
2018-07-25T09:33:31.517Z,5173
2018-07-25T09:34:47.439Z,5186
2018-07-25T09:36:03.352Z,5209
2018-07-25T09:37:19.254Z,5232
2018-07-25T09:38:35.136Z,5183
2018-07-25T09:39:51.053Z,5238
2018-07-25T09:41:07.050Z,5267
2018-07-25T09:42:22.887Z,5294
2018-07-25T09:43:38.794Z,5251
2018-07-25T09:44:54.712Z,5289
2018-07-25T09:46:10.619Z,5307
2018-07-25T09:47:26.545Z,5300
2018-07-25T09:48:42.471Z,5331
2018-07-25T09:49:58.425Z,5343
2018-07-25T09:51:14.349Z,5390
2018-07-25T09:52:31.294Z,5339
2018-07-25T09:53:47.206Z,5344
2018-07-25T09:55:03.201Z,5326
2018-07-25T09:56:19.095Z,5365
2018-07-25T09:57:35.080Z,5345
2018-07-25T09:58:51.179Z,5380
2018-07-25T10:00:07.091Z,5385
2018-07-25T10:01:23.021Z,5360
2018-07-25T10:02:38.951Z,5412
2018-07-25T10:03:54.960Z,5429
2018-07-25T10:05:10.914Z,5439
2018-07-25T10:06:26.829Z,5472
2018-07-25T10:07:42.816Z,5472
2018-07-25T10:08:58.814Z,5430
2018-07-25T10:10:14.702Z,5461
2018-07-25T10:11:30.632Z,5469
2018-07-25T10:12:46.516Z,5503
2018-07-25T10:14:02.462Z,5504
2018-07-25T10:15:18.424Z,5489
2018-07-25T10:16:34.319Z,5453
2018-07-25T10:17:50.206Z,5445
2018-07-25T10:19:06.138Z,5405
2018-07-25T10:20:22.041Z,5448
2018-07-25T10:21:37.973Z,5516
2018-07-25T10:22:53.871Z,5468
2018-07-25T10:24:09.796Z,5480
2018-07-25T10:25:25.691Z,5460
2018-07-25T10:26:41.659Z,5461
2018-07-25T10:27:57.636Z,5470
2018-07-25T10:29:13.573Z,5473
2018-07-25T10:30:29.438Z,5456
2018-07-25T10:31:45.410Z,5480
2018-07-25T10:33:01.439Z,5484
2018-07-25T10:34:17.261Z,5495
2018-07-25T10:35:33.152Z,5485
2018-07-25T10:36:49.150Z,5527
2018-07-25T10:38:05.166Z,5532
2018-07-25T10:39:21.064Z,5549
2018-07-25T10:40:36.957Z,5550
2018-07-25T10:41:52.917Z,5562
2018-07-25T10:43:08.844Z,5552
2018-07-25T10:44:24.787Z,5513
2018-07-25T10:45:40.816Z,5604
2018-07-25T10:46:56.918Z,5629
2018-07-25T10:48:12.789Z,5645
2018-07-25T10:49:28.711Z,5666
2018-07-25T10:50:44.630Z,5656
2018-07-25T10:52:00.576Z,5738
2018-07-25T10:53:16.541Z,5797
2018-07-25T10:54:32.487Z,5894
2018-07-25T10:55:48.504Z,5930
2018-07-25T10:57:04.380Z,5968
2018-07-25T10:58:20.251Z,6034
2018-07-25T10:59:36.156Z,6091
2018-07-25T11:02:32.922Z,6085
2018-07-25T11:03:48.809Z,6316
2018-07-25T11:05:04.689Z,6320
2018-07-25T11:06:20.677Z,6384
2018-07-25T11:07:36.577Z,6448
2018-07-25T11:08:52.512Z,6606
2018-07-25T11:10:08.441Z,6706
2018-07-25T11:11:24.356Z,6731
2018-07-25T11:12:40.280Z,6785
2018-07-25T11:13:56.233Z,6841
2018-07-25T11:15:12.140Z,6856
2018-07-25T11:16:28.085Z,6995
2018-07-25T11:17:44.022Z,7070
2018-07-25T11:18:59.948Z,7161
2018-07-25T11:20:15.887Z,7174
2018-07-25T11:21:31.774Z,7286
2018-07-25T11:22:47.721Z,7413
2018-07-25T11:24:03.626Z,7472
2018-07-25T11:25:19.569Z,7510
2018-07-25T11:26:35.453Z,7579
2018-07-25T11:27:51.384Z,7523
2018-07-25T11:29:07.265Z,7619
2018-07-25T11:30:23.202Z,7638
2018-07-25T11:31:39.089Z,7686
2018-07-25T11:32:55.170Z,7770
2018-07-25T11:34:11.064Z,7794
2018-07-25T11:35:26.914Z,7793
2018-07-25T11:36:42.795Z,7824
2018-07-25T11:37:58.750Z,7820
2018-07-25T11:39:14.696Z,7756
2018-07-25T11:40:30.612Z,7723
2018-07-25T11:41:46.514Z,7726
2018-07-25T11:43:02.442Z,7796
2018-07-25T11:44:18.438Z,7881
2018-07-25T11:45:34.376Z,7913
2018-07-25T11:46:50.311Z,7874
2018-07-25T11:48:06.381Z,7836
2018-07-25T11:49:22.376Z,7813
2018-07-25T11:50:38.305Z,7808
2018-07-25T11:51:54.214Z,7721
2018-07-25T11:53:10.159Z,7803
2018-07-25T11:54:26.127Z,7827
2018-07-25T11:55:42.166Z,7772
2018-07-25T11:56:57.908Z,7718
2018-07-25T11:58:13.934Z,7680
2018-07-25T11:59:30.855Z,7652
2018-07-25T12:00:46.758Z,7639
2018-07-25T12:02:02.666Z,7602
2018-07-25T12:03:18.571Z,7586
2018-07-25T12:04:34.534Z,7518
2018-07-25T12:05:50.453Z,7554
2018-07-25T12:07:06.464Z,7666
2018-07-25T12:08:22.387Z,7718
2018-07-25T12:09:38.436Z,7764
2018-07-25T12:10:54.371Z,7669
2018-07-25T12:12:10.306Z,7605
2018-07-25T12:13:26.248Z,7644
2018-07-25T12:14:42.208Z,7513
2018-07-25T12:15:58.139Z,7412
2018-07-25T12:17:14.064Z,7391
2018-07-25T12:18:30.040Z,7469
2018-07-25T12:19:46.025Z,7443
2018-07-25T12:21:01.986Z,7478
2018-07-25T12:22:17.889Z,7494
2018-07-25T12:23:33.803Z,7417
2018-07-25T12:24:49.800Z,7404
2018-07-25T12:26:05.735Z,7340
2018-07-25T12:27:22.650Z,7260
2018-07-25T12:28:38.556Z,7183
2018-07-25T12:29:54.491Z,7119
2018-07-25T12:31:10.604Z,7152
2018-07-25T12:32:26.548Z,7147
2018-07-25T12:33:42.469Z,7176
2018-07-25T12:34:58.426Z,7180
2018-07-25T12:36:14.410Z,7219
2018-07-25T12:37:30.368Z,7240
2018-07-25T12:38:46.325Z,7260
2018-07-25T12:40:02.280Z,7327
2018-07-25T12:41:18.230Z,7387
2018-07-25T12:42:34.137Z,7470
2018-07-25T12:43:50.150Z,7583
2018-07-25T12:45:06.207Z,7689
2018-07-25T12:46:22.200Z,7752
2018-07-25T12:47:38.292Z,7822
2018-07-25T12:48:54.208Z,7862
2018-07-25T12:50:10.117Z,7802
2018-07-25T12:51:26.041Z,7805
2018-07-25T12:52:41.912Z,7863
2018-07-25T12:53:57.923Z,7810
2018-07-25T12:55:13.903Z,7860
2018-07-25T12:56:29.857Z,7899
2018-07-25T12:57:45.778Z,7866
2018-07-25T12:59:01.695Z,7890
2018-07-25T13:00:17.660Z,7832
2018-07-25T13:01:33.640Z,7767
2018-07-25T13:02:49.599Z,7752
2018-07-25T13:04:05.480Z,7689
2018-07-25T13:07:01.910Z,7638
2018-07-25T13:08:17.821Z,7643
2018-07-25T13:09:33.714Z,7600
2018-07-25T13:10:49.622Z,7635
2018-07-25T13:12:05.575Z,7592
2018-07-25T13:13:21.510Z,7566
2018-07-25T13:14:37.439Z,7506
2018-07-25T13:15:53.382Z,7467
2018-07-25T13:17:09.254Z,7426
2018-07-25T13:18:25.199Z,7319
2018-07-25T13:19:41.115Z,7263
2018-07-25T13:20:56.990Z,7211
2018-07-25T13:22:12.952Z,7166
2018-07-25T13:23:28.840Z,7135
2018-07-25T13:24:44.752Z,7163
2018-07-25T13:26:00.649Z,7148
2018-07-25T13:27:16.545Z,7137
2018-07-25T13:28:32.458Z,7189
2018-07-25T13:29:48.368Z,7240
2018-07-25T13:31:05.231Z,7257
2018-07-25T13:32:21.148Z,7340
2018-07-25T13:33:37.059Z,7407
2018-07-25T13:34:52.995Z,7441
2018-07-25T13:36:08.981Z,7452
2018-07-25T13:37:24.825Z,7482
2018-07-25T13:38:40.699Z,7486
2018-07-25T13:39:56.595Z,7509
2018-07-25T13:41:12.453Z,7451
2018-07-25T13:42:28.346Z,7491
2018-07-25T13:43:44.259Z,7470
2018-07-25T13:45:00.165Z,6911
2018-07-25T13:46:16.217Z,5924
2018-07-25T13:47:32.103Z,5564
2018-07-25T13:48:47.976Z,7101
2018-07-25T13:50:03.900Z,7505
2018-07-25T13:51:19.779Z,7915
2018-07-25T13:52:35.698Z,8193
2018-07-25T13:53:51.594Z,8217
2018-07-25T13:55:07.501Z,8111
2018-07-25T13:56:23.380Z,7980
2018-07-25T13:57:39.231Z,7948
2018-07-25T13:58:55.119Z,7962
2018-07-25T14:00:12.024Z,8071
2018-07-25T14:01:28.924Z,8086
2018-07-25T14:02:44.873Z,8168
2018-07-25T14:04:00.731Z,8416
2018-07-25T14:05:16.703Z,8663
2018-07-25T14:06:32.543Z,8948
2018-07-25T14:07:48.431Z,9163
2018-07-25T14:09:04.500Z,8321
2018-07-25T14:10:20.423Z,9337
2018-07-25T14:11:36.455Z,9783
2018-07-25T14:12:52.211Z,9942
2018-07-25T14:14:08.080Z,9864
2018-07-25T14:15:23.991Z,9731
2018-07-25T14:16:39.885Z,9611
2018-07-25T14:17:55.825Z,9542
2018-07-25T14:19:11.722Z,9734
2018-07-25T14:20:27.603Z,9992
2018-07-25T14:21:43.522Z,10180
2018-07-25T14:22:59.420Z,10462
2018-07-25T14:24:15.352Z,10260
2018-07-25T14:25:31.192Z,9960
2018-07-25T14:26:47.190Z,9549
2018-07-25T14:28:03.073Z,9603
2018-07-25T14:29:19.050Z,8323
2018-07-25T14:30:35.017Z,8221
2018-07-25T14:31:50.849Z,8180
2018-07-25T14:33:06.739Z,8116
2018-07-25T14:34:22.725Z,7862
2018-07-25T14:35:38.719Z,7653
2018-07-25T14:36:54.669Z,7597
2018-07-25T14:38:10.573Z,7620
2018-07-25T14:39:26.516Z,7842
2018-07-25T14:40:42.387Z,8106
2018-07-25T14:41:58.343Z,8445
2018-07-25T14:43:14.336Z,8714
2018-07-25T14:44:30.221Z,8468
2018-07-25T14:45:46.201Z,8082
2018-07-25T14:47:02.252Z,7782
2018-07-25T14:48:17.973Z,9064
2018-07-25T14:49:33.862Z,9355
2018-07-25T14:50:49.727Z,9585
2018-07-25T14:52:05.581Z,9712
2018-07-25T14:53:21.480Z,9511
2018-07-25T14:54:37.373Z,9477
2018-07-25T14:55:53.274Z,9809
2018-07-25T14:57:09.230Z,10156
2018-07-25T14:58:25.131Z,10527
2018-07-25T14:59:41.081Z,10666
2018-07-25T15:00:57.054Z,10328
2018-07-25T15:02:13.028Z,10047
2018-07-25T15:03:28.896Z,9903
2018-07-25T15:04:44.851Z,9767
2018-07-25T15:06:00.786Z,9559
2018-07-25T15:07:16.776Z,9528
2018-07-25T15:08:32.719Z,9834
2018-07-25T15:09:48.605Z,9792
2018-07-25T15:11:04.490Z,9692
2018-07-25T15:12:20.387Z,9720
2018-07-25T15:13:36.289Z,9367
2018-07-25T15:14:52.193Z,8757
2018-07-25T15:16:08.106Z,8560
2018-07-25T15:17:24.061Z,8272
2018-07-25T15:18:39.989Z,8868
2018-07-25T15:19:55.991Z,8642
2018-07-25T15:21:11.944Z,8546
2018-07-25T15:22:27.877Z,8469
2018-07-25T15:25:28.395Z,8699
2018-07-25T15:26:44.312Z,7875
2018-07-25T15:28:00.209Z,7479
2018-07-25T15:29:16.193Z,7470
2018-07-25T15:30:32.082Z,7488
2018-07-25T15:33:04.175Z,8618
2018-07-25T15:34:20.097Z,8756
2018-07-25T15:35:36.062Z,8689
2018-07-25T15:36:52.020Z,8737
2018-07-25T15:38:08.105Z,8621
2018-07-25T15:39:24.115Z,8504
2018-07-25T15:40:40.093Z,8310
2018-07-25T15:41:55.987Z,8027
2018-07-25T15:43:12.922Z,7810
2018-07-25T15:44:28.848Z,7322
2018-07-25T15:45:44.777Z,7173
2018-07-25T15:47:00.765Z,7447
2018-07-25T15:48:16.692Z,7467
2018-07-25T15:49:32.602Z,7552
2018-07-25T15:50:48.534Z,7365
2018-07-25T15:52:05.462Z,7331
2018-07-25T15:53:21.450Z,7276
2018-07-25T15:54:37.374Z,7135
2018-07-25T15:55:53.322Z,7325
2018-07-25T15:57:09.310Z,7339
2018-07-25T15:58:25.264Z,7306
2018-07-25T15:59:41.352Z,7252
2018-07-25T16:00:57.208Z,6913
2018-07-25T16:02:13.275Z,6847
2018-07-25T16:03:29.317Z,6795
2018-07-25T16:04:45.276Z,5539
2018-07-25T16:06:01.251Z,6963
2018-07-25T16:07:17.262Z,6913
2018-07-25T16:08:33.237Z,6857
2018-07-25T16:09:49.257Z,6834
2018-07-25T16:11:05.137Z,6816
2018-07-25T16:12:21.027Z,6784
2018-07-25T16:13:36.993Z,6736
2018-07-25T16:14:52.942Z,6682
2018-07-25T16:16:08.869Z,6603
2018-07-25T16:17:24.766Z,6592
2018-07-25T16:18:40.630Z,6575
2018-07-25T16:19:56.559Z,6548
2018-07-25T16:21:12.457Z,6475
2018-07-25T16:22:28.416Z,6394
2018-07-25T16:23:44.314Z,6350
2018-07-25T16:25:00.299Z,6282
2018-07-25T16:26:16.227Z,6239
2018-07-25T16:27:32.174Z,6145
2018-07-25T16:28:48.117Z,6088
2018-07-25T16:30:04.122Z,5999
2018-07-25T16:31:20.101Z,5917
2018-07-25T16:32:36.123Z,5859
2018-07-25T16:33:51.967Z,5844
2018-07-25T16:35:07.926Z,5840
2018-07-25T16:36:23.862Z,5796
2018-07-25T16:37:39.803Z,5746
2018-07-25T16:38:55.802Z,5721
2018-07-25T16:40:11.731Z,5630
2018-07-25T16:41:27.615Z,5542
2018-07-25T16:42:43.578Z,5437
2018-07-25T16:44:00.307Z,5208
2018-07-25T16:45:16.318Z,4970
2018-07-25T16:46:32.268Z,5052
2018-07-25T16:47:49.316Z,5028
2018-07-25T16:49:05.227Z,5010
2018-07-25T16:50:21.166Z,4984
2018-07-25T16:51:37.117Z,4960
2018-07-25T16:52:54.197Z,4924
2018-07-25T16:54:10.122Z,4881
2018-07-25T16:55:26.087Z,4818
2018-07-25T16:56:42.141Z,4724
2018-07-25T16:57:57.937Z,4675
2018-07-25T16:59:13.862Z,4637
2018-07-25T17:00:29.790Z,4576
2018-07-25T17:01:45.761Z,4530
2018-07-25T17:03:01.718Z,4485
2018-07-25T17:04:17.640Z,4434
2018-07-25T17:05:33.564Z,4396
2018-07-25T17:06:49.535Z,4343
2018-07-25T17:08:05.510Z,4274
2018-07-25T17:09:21.534Z,4211
2018-07-25T17:10:37.522Z,4135
2018-07-25T17:11:53.636Z,4051
2018-07-25T17:13:09.788Z,3975
2018-07-25T17:14:25.727Z,3884
2018-07-25T17:15:41.903Z,3836
2018-07-25T17:16:57.969Z,3788
2018-07-25T17:18:13.928Z,3747
2018-07-25T17:19:29.917Z,3729
2018-07-25T17:20:45.929Z,3731
2018-07-25T17:22:01.884Z,3709